Anniston, Missouri
Current Conditions -  °F | °C
As of 2:55 AM on Saturday 01 Nov 2014 (Local Time) from KCIR Reporting Station
Clear Clear  
Wind Chill: 30°   Ceiling: Unl
Heat Index: 37°   Visibility: 10mi
Dew Point: 23°   Wind: 12mph
Humidity: 56%   Direction: 330°NNW
Pressure: 30.33"   Gusts: 20mph
Location:  36.83°N, 89.33°W
Report Text: KCIR 010755Z AUTO 33010G17KT 10SM CLR 03/M05 A3033 RMK AO2 T00301050
Loading
Personal Weather Stations






























Interactive Weather Map New forecast layout! Learn more

10-Day Weather Forecast

Advertisements
Track Severe Weather on mobile